createdAt,value
2022-09-05T00:02:20.652Z,24.11
2022-09-05T00:05:10.922Z,24.21
2022-09-05T00:07:59.462Z,24.24
2022-09-05T00:11:40.710Z,24.25
2022-09-05T00:14:07.034Z,24.24
2022-09-05T00:18:06.538Z,24.33
2022-09-05T00:24:29.589Z,24.39
2022-09-05T00:24:42.067Z,24.58
2022-09-05T00:28:00.150Z,24.55
2022-09-05T00:31:54.489Z,24.53
2022-09-05T00:34:18.799Z,24.69
2022-09-05T00:36:55.841Z,24.63
2022-09-05T00:39:42.187Z,24.61
2022-09-05T00:42:23.485Z,24.94
2022-09-05T00:45:01.557Z,24.94
2022-09-05T00:47:37.257Z,24.99
2022-09-05T00:50:19.947Z,25.15
2022-09-05T00:53:20.157Z,25.36
2022-09-05T00:56:09.213Z,25.62
2022-09-05T00:58:57.467Z,25.62
2022-09-05T01:01:35.417Z,25.59
2022-09-05T01:04:31.053Z,25.66
2022-09-05T01:07:11.955Z,25.74
2022-09-05T01:10:08.675Z,25.78
2022-09-05T01:13:24.248Z,25.77
2022-09-05T01:15:59.312Z,25.96
2022-09-05T01:18:49.389Z,25.94
2022-09-05T01:22:02.140Z,25.93
2022-09-05T01:24:54.501Z,26.15
2022-09-05T01:29:13.212Z,26.39
2022-09-05T01:31:20.994Z,26.57
2022-09-05T01:33:56.359Z,26.65
2022-09-05T01:37:06.617Z,26.91
2022-09-05T01:40:15.705Z,27.10
2022-09-05T01:43:15.249Z,27.24
2022-09-05T01:46:29.213Z,27.61
2022-09-05T01:49:17.171Z,27.72
2022-09-05T01:54:58.348Z,28.06
2022-09-05T01:57:52.693Z,28.19
2022-09-05T02:00:32.028Z,28.30
2022-09-05T02:03:41.110Z,28.49
2022-09-05T02:06:40.192Z,28.85
2022-09-05T02:09:47.312Z,29.06
2022-09-05T02:13:05.248Z,29.23
2022-09-05T02:15:59.248Z,29.23
2022-09-05T02:19:05.414Z,29.36
2022-09-05T02:21:56.501Z,29.74
2022-09-05T02:24:39.695Z,30.04
2022-09-05T02:27:47.545Z,30.32
2022-09-05T02:30:24.570Z,30.49
2022-09-05T02:33:32.555Z,30.69
2022-09-05T02:36:20.562Z,30.78
2022-09-05T02:45:00.437Z,30.78
2022-09-05T02:45:20.930Z,30.83
2022-09-05T02:46:03.309Z,31.13
2022-09-05T02:48:54.141Z,31.21
2022-09-05T02:56:18.533Z,31.22
2022-09-05T02:57:41.359Z,31.28
2022-09-05T02:58:05.898Z,31.22
2022-09-05T03:01:05.418Z,31.30
2022-09-05T03:04:05.216Z,31.47
2022-09-05T03:06:43.396Z,31.69
2022-09-05T03:09:28.653Z,31.86
2022-09-05T03:12:50.697Z,31.87
2022-09-05T03:16:04.679Z,31.96
2022-09-05T03:19:26.795Z,31.82
2022-09-05T03:22:15.320Z,31.87
2022-09-05T03:24:59.568Z,31.92
2022-09-05T03:27:56.428Z,31.98
2022-09-05T03:30:47.842Z,31.97
2022-09-05T03:33:54.372Z,32.02
2022-09-05T03:37:13.925Z,32.08
2022-09-05T03:40:17.096Z,32.06
2022-09-05T03:43:13.143Z,32.04
2022-09-05T03:46:31.442Z,31.76
2022-09-05T03:49:35.456Z,31.89
2022-09-05T03:57:17.964Z,32.22
2022-09-05T03:57:18.917Z,32.07
2022-09-05T03:59:36.001Z,32.21
2022-09-05T04:04:10.860Z,32.43
2022-09-05T04:08:18.068Z,32.35
2022-09-05T04:09:49.276Z,32.17
2022-09-05T04:12:26.326Z,32.16
2022-09-05T04:15:07.363Z,32.40
2022-09-05T04:17:48.066Z,32.55
2022-09-05T04:20:53.136Z,32.77
2022-09-05T04:23:46.193Z,33.01
2022-09-05T04:26:48.853Z,33.30
2022-09-05T04:29:49.501Z,33.45
2022-09-05T04:32:40.503Z,33.76
2022-09-05T04:35:54.021Z,34.03
2022-09-05T04:38:45.948Z,34.34
2022-09-05T04:41:39.722Z,34.52
2022-09-05T04:44:29.691Z,34.68
2022-09-05T04:47:14.842Z,34.91
2022-09-05T04:50:03.434Z,35.28
2022-09-05T04:53:18.547Z,35.26
2022-09-05T04:55:59.081Z,35.50
2022-09-05T05:00:08.959Z,35.66
2022-09-05T05:06:10.312Z,36.04
2022-09-05T05:06:20.305Z,35.80
2022-09-05T05:07:41.329Z,36.12
2022-09-05T05:13:10.665Z,36.12
2022-09-05T05:18:09.409Z,36.23
2022-09-05T05:18:10.897Z,36.20
2022-09-05T05:20:39.414Z,36.29
2022-09-05T05:23:07.896Z,36.38
2022-09-05T05:26:00.403Z,36.47
2022-09-05T05:29:20.958Z,36.60
2022-09-05T05:31:58.186Z,36.80
2022-09-05T05:34:44.457Z,36.87
2022-09-05T05:37:33.146Z,36.95
2022-09-05T05:40:18.827Z,37.11
2022-09-05T05:42:49.072Z,37.22
2022-09-05T05:45:35.400Z,37.29
2022-09-05T05:48:34.434Z,37.45
2022-09-05T05:52:02.414Z,37.53
2022-09-05T05:55:48.861Z,37.64
2022-09-05T05:58:21.381Z,37.89
2022-09-05T06:01:30.249Z,37.95
2022-09-05T06:04:45.150Z,38.10
2022-09-05T06:09:33.764Z,38.22
2022-09-05T06:14:51.160Z,38.31
2022-09-05T06:15:10.760Z,38.45
2022-09-05T06:18:37.975Z,38.68
2022-09-05T06:22:14.130Z,38.97
2022-09-05T06:25:40.948Z,39.24
2022-09-05T06:28:46.799Z,39.36
2022-09-05T06:31:52.045Z,39.42
2022-09-05T06:34:58.156Z,39.43
2022-09-05T06:37:59.446Z,39.54
2022-09-05T06:40:55.655Z,39.62
2022-09-05T06:44:05.703Z,39.53
2022-09-05T06:46:55.041Z,39.63
2022-09-05T06:49:59.476Z,39.41
2022-09-05T06:52:59.200Z,39.28
2022-09-05T06:56:07.378Z,39.28
2022-09-05T06:59:29.063Z,39.00
2022-09-05T07:02:59.879Z,38.23
2022-09-05T07:05:52.361Z,37.98
2022-09-05T07:08:49.263Z,38.31
2022-09-05T07:11:56.716Z,38.40
2022-09-05T07:15:08.907Z,38.58
2022-09-05T07:18:09.660Z,38.71
2022-09-05T07:21:32.033Z,38.72
2022-09-05T07:24:40.447Z,38.77
2022-09-05T07:27:11.190Z,38.78
2022-09-05T07:30:00.759Z,38.81
2022-09-05T07:32:37.160Z,38.86
2022-09-05T07:35:10.480Z,38.97
2022-09-05T07:37:46.583Z,39.02
2022-09-05T07:40:26.871Z,39.11
2022-09-05T07:43:10.541Z,39.14
2022-09-05T07:46:12.366Z,39.27
2022-09-05T07:49:02.052Z,39.31
2022-09-05T07:56:46.466Z,39.43
2022-09-05T07:57:01.601Z,39.49
2022-09-05T07:57:51.984Z,39.39
2022-09-05T08:00:29.370Z,39.34
2022-09-05T08:03:14.198Z,39.43
2022-09-05T08:05:57.636Z,39.40
2022-09-05T08:09:18.446Z,39.54
2022-09-05T08:11:48.391Z,39.59
2022-09-05T08:14:43.561Z,39.66
2022-09-05T08:17:29.887Z,39.79
2022-09-05T08:20:28.918Z,39.74
2022-09-05T08:23:06.865Z,39.77
2022-09-05T08:25:56.738Z,39.78
2022-09-05T08:28:56.501Z,39.81
2022-09-05T08:31:42.269Z,39.85
2022-09-05T08:35:13.118Z,39.90
2022-09-05T08:37:45.223Z,40.11
2022-09-05T08:40:40.568Z,40.24
2022-09-05T08:46:36.862Z,40.34
2022-09-05T08:47:01.501Z,40.41
2022-09-05T08:49:56.032Z,40.52
2022-09-05T08:52:56.577Z,40.62
2022-09-05T08:56:02.912Z,40.55
2022-09-05T08:58:50.693Z,40.53
2022-09-05T09:02:46.394Z,40.64
2022-09-05T09:05:56.667Z,40.60
2022-09-05T09:08:53.794Z,40.69
2022-09-05T09:11:36.736Z,40.78
2022-09-05T09:15:02.478Z,40.75
2022-09-05T09:17:53.409Z,40.80
2022-09-05T09:20:54.030Z,40.95
2022-09-05T09:23:48.233Z,41.05
2022-09-05T09:26:24.627Z,41.26
2022-09-05T09:29:13.568Z,41.32
2022-09-05T09:32:20.318Z,41.49
2022-09-05T09:35:05.685Z,41.56
2022-09-05T09:38:14.853Z,41.79
2022-09-05T09:41:03.060Z,41.82
2022-09-05T09:44:12.918Z,41.84
2022-09-05T09:46:47.394Z,41.86
2022-09-05T09:49:38.894Z,41.90
2022-09-05T09:52:41.481Z,41.98
2022-09-05T09:55:41.563Z,42.01
2022-09-05T09:58:22.507Z,42.15
2022-09-05T10:01:35.278Z,42.22
2022-09-05T10:10:34.568Z,42.20
2022-09-05T10:10:44.657Z,42.22
2022-09-05T10:11:51.496Z,42.33
2022-09-05T10:14:59.457Z,42.51
2022-09-05T10:17:54.662Z,42.45
2022-09-05T10:21:18.100Z,42.49
2022-09-05T10:24:26.634Z,42.52
2022-09-05T10:27:25.202Z,42.71
2022-09-05T10:30:16.733Z,42.82
2022-09-05T10:35:17.163Z,43.02
2022-09-05T10:36:25.832Z,43.09
2022-09-05T10:39:25.743Z,43.09
2022-09-05T10:42:04.887Z,42.91
2022-09-05T10:44:47.543Z,42.93
2022-09-05T10:47:29.203Z,43.01
2022-09-05T10:50:28.790Z,43.21
2022-09-05T10:53:22.187Z,43.42
2022-09-05T10:56:28.689Z,43.61
2022-09-05T11:02:15.798Z,43.76
2022-09-05T11:02:30.353Z,43.86
2022-09-05T11:05:27.659Z,43.88
2022-09-05T11:08:17.034Z,43.98
2022-09-05T11:11:28.624Z,44.07
2022-09-05T11:14:30.710Z,44.26
2022-09-05T11:17:42.022Z,44.40
2022-09-05T11:21:00.325Z,44.26
2022-09-05T11:23:50.330Z,44.14
2022-09-05T11:26:33.087Z,44.16
2022-09-05T11:29:16.337Z,44.26
2022-09-05T11:35:51.414Z,44.49
2022-09-05T11:39:57.301Z,44.61
2022-09-05T11:40:00.589Z,44.68
2022-09-05T11:41:54.968Z,44.63
2022-09-05T11:44:52.057Z,44.78
2022-09-05T11:47:58.248Z,44.98
2022-09-05T11:50:54.742Z,45.06
2022-09-05T11:54:21.428Z,45.20
2022-09-05T11:57:34.559Z,45.09
2022-09-05T12:00:33.868Z,45.27
2022-09-05T12:03:58.804Z,45.32
2022-09-05T12:07:01.653Z,45.42
2022-09-05T12:09:53.596Z,45.60
2022-09-05T12:12:54.126Z,45.75
2022-09-05T12:15:35.257Z,45.73
2022-09-05T12:18:53.058Z,45.77
2022-09-05T12:21:42.976Z,45.88
2022-09-05T12:25:15.835Z,46.03
2022-09-05T12:27:36.901Z,46.04
2022-09-05T12:30:23.232Z,46.09
2022-09-05T12:36:04.716Z,46.17
2022-09-05T12:40:06.274Z,46.25
2022-09-05T12:41:32.171Z,46.47
2022-09-05T12:44:37.558Z,46.49
2022-09-05T12:45:59.208Z,46.49
2022-09-05T12:48:51.751Z,46.49
2022-09-05T12:51:45.770Z,46.60
2022-09-05T12:54:33.459Z,46.69
2022-09-05T13:01:42.001Z,46.70
2022-09-05T13:03:06.943Z,46.76
2022-09-05T13:03:30.378Z,46.77
2022-09-05T13:06:25.422Z,46.90
2022-09-05T13:09:18.282Z,47.11
2022-09-05T13:14:58.213Z,46.91
2022-09-05T13:15:23.573Z,46.94
2022-09-05T13:18:16.557Z,46.99
2022-09-05T13:21:07.373Z,46.99
2022-09-05T13:23:56.935Z,46.95
2022-09-05T13:26:55.420Z,47.02
2022-09-05T13:29:39.881Z,47.01
2022-09-05T13:38:13.697Z,46.98
2022-09-05T13:38:17.983Z,47.08
2022-09-05T13:39:10.780Z,47.08
2022-09-05T13:42:00.670Z,47.12
2022-09-05T13:44:31.576Z,47.25
2022-09-05T13:47:40.091Z,47.31
2022-09-05T13:50:38.915Z,47.23
2022-09-05T13:53:19.889Z,47.27
2022-09-05T13:56:03.501Z,47.40
2022-09-05T13:58:56.439Z,47.45
2022-09-05T14:02:24.749Z,47.34
2022-09-05T14:05:20.269Z,47.51
2022-09-05T14:08:34.764Z,47.23
2022-09-05T14:11:19.137Z,47.05
2022-09-05T14:20:30.807Z,46.07
2022-09-05T14:23:10.746Z,45.93
2022-09-05T14:25:52.742Z,45.91
2022-09-05T14:28:47.778Z,45.93
2022-09-05T14:37:51.500Z,46.02
2022-09-05T14:37:54.786Z,45.81
2022-09-05T14:38:09.996Z,45.94
2022-09-05T14:41:36.615Z,45.38
2022-09-05T14:44:50.383Z,44.95
2022-09-05T14:47:52.930Z,45.06
2022-09-05T14:50:51.907Z,44.63
2022-09-05T14:57:28.623Z,43.03
2022-09-05T15:02:50.348Z,43.07
2022-09-05T15:03:00.378Z,43.32
2022-09-05T15:05:29.214Z,43.16
2022-09-05T15:10:16.299Z,43.35
2022-09-05T15:12:20.170Z,42.47
2022-09-05T15:14:10.690Z,42.10
2022-09-05T15:16:46.546Z,41.21
2022-09-05T15:20:05.349Z,39.91
2022-09-05T15:22:43.179Z,39.31
2022-09-05T15:25:26.204Z,38.67
2022-09-05T15:27:56.594Z,38.00
2022-09-05T15:30:36.558Z,36.98
2022-09-05T15:33:36.154Z,37.38
2022-09-05T15:36:08.204Z,37.30
2022-09-05T15:38:55.247Z,36.73
2022-09-05T15:41:31.062Z,36.49
2022-09-05T15:44:19.822Z,35.83
2022-09-05T15:46:58.266Z,35.17
2022-09-05T15:49:55.993Z,34.70
2022-09-05T15:52:29.149Z,34.32
2022-09-05T15:55:13.110Z,34.30
2022-09-05T15:58:05.968Z,33.94
2022-09-05T16:00:35.077Z,34.29
2022-09-05T16:04:47.885Z,33.99
2022-09-05T16:10:36.333Z,33.00
2022-09-05T16:10:43.753Z,32.55
2022-09-05T16:12:19.466Z,31.61
2022-09-05T16:15:45.262Z,31.38
2022-09-05T16:23:15.701Z,30.40
2022-09-05T16:23:26.566Z,30.47
2022-09-05T16:24:15.053Z,30.40
2022-09-05T16:26:53.498Z,30.31
2022-09-05T16:29:26.659Z,30.19
2022-09-05T16:32:06.651Z,30.21
2022-09-05T16:34:59.906Z,29.99
2022-09-05T16:37:43.094Z,29.98
2022-09-05T16:40:31.107Z,30.38
2022-09-05T16:43:37.654Z,30.47
2022-09-05T16:46:16.370Z,30.30
2022-09-05T16:49:19.604Z,29.95
2022-09-05T16:52:17.171Z,30.02
2022-09-05T16:55:01.188Z,29.96
2022-09-05T16:57:39.304Z,29.87
2022-09-05T17:00:11.523Z,29.73
2022-09-05T17:03:32.193Z,30.05
2022-09-05T17:06:52.923Z,30.74
2022-09-05T17:09:29.592Z,30.76
2022-09-05T17:12:02.996Z,31.17
2022-09-05T17:14:41.048Z,31.10
2022-09-05T17:18:19.596Z,31.12
2022-09-05T17:20:22.422Z,31.01
2022-09-05T17:29:20.233Z,30.69
2022-09-05T17:29:27.751Z,30.95
2022-09-05T17:29:46.855Z,31.29
2022-09-05T17:32:05.080Z,31.85
2022-09-05T17:34:54.708Z,32.16
2022-09-05T17:38:11.113Z,32.45
2022-09-05T17:41:18.113Z,31.82
2022-09-05T17:44:01.884Z,32.27
2022-09-05T17:46:35.326Z,32.92
2022-09-05T17:49:19.497Z,33.70
2022-09-05T17:51:54.763Z,34.19
2022-09-05T17:54:34.567Z,34.37
2022-09-05T17:57:34.667Z,34.62
2022-09-05T18:00:45.707Z,34.36
2022-09-05T18:03:45.964Z,33.87
2022-09-05T18:06:19.207Z,34.00
2022-09-05T18:08:51.615Z,33.78
2022-09-05T18:11:26.548Z,33.68
2022-09-05T18:14:06.930Z,33.81
2022-09-05T18:17:35.947Z,33.77
2022-09-05T18:20:06.590Z,33.36
2022-09-05T18:22:44.295Z,33.41
2022-09-05T18:25:33.409Z,33.04
2022-09-05T18:28:42.447Z,32.77
2022-09-05T18:31:40.993Z,32.84
2022-09-05T18:34:17.404Z,32.57
2022-09-05T18:36:53.790Z,32.22
2022-09-05T18:39:29.298Z,32.39
2022-09-05T18:42:33.667Z,31.71
2022-09-05T18:45:14.702Z,31.58
2022-09-05T18:48:04.166Z,31.84
2022-09-05T18:50:43.922Z,31.59
2022-09-05T18:53:31.977Z,31.40
2022-09-05T18:56:20.391Z,31.73
2022-09-05T18:59:18.769Z,31.66
2022-09-05T19:02:32.091Z,30.83
2022-09-05T19:05:35.277Z,30.62
2022-09-05T19:08:38.564Z,30.87
2022-09-05T19:11:27.755Z,30.71
2022-09-05T19:14:25.987Z,30.73
2022-09-05T19:17:24.826Z,30.66
2022-09-05T19:20:33.663Z,30.01
2022-09-05T19:23:14.548Z,29.61
2022-09-05T19:25:53.938Z,29.11
2022-09-05T19:36:47.282Z,29.34
2022-09-05T19:36:51.929Z,29.07
2022-09-05T19:37:13.583Z,28.59
2022-09-05T19:37:37.394Z,28.47
2022-09-05T19:44:03.314Z,28.83
2022-09-05T19:47:37.378Z,29.11
2022-09-05T19:47:52.051Z,28.74
2022-09-05T19:49:13.048Z,28.15
2022-09-05T19:51:44.807Z,28.22
2022-09-05T19:54:39.209Z,27.80
2022-09-05T19:57:20.877Z,27.51
2022-09-05T19:59:57.093Z,27.63
2022-09-05T20:02:36.165Z,27.41
2022-09-05T20:05:10.573Z,27.35
2022-09-05T20:07:52.369Z,27.48
2022-09-05T20:10:35.654Z,27.37
2022-09-05T20:13:24.365Z,27.51
2022-09-05T20:15:54.269Z,26.90
2022-09-05T20:18:26.971Z,27.00
2022-09-05T20:21:36.513Z,26.87
2022-09-05T20:24:05.892Z,27.05
2022-09-05T20:26:36.247Z,27.04
2022-09-05T20:29:10.237Z,26.88
2022-09-05T20:31:39.647Z,26.08
2022-09-05T20:35:09.180Z,25.58
2022-09-05T20:43:17.663Z,25.95
2022-09-05T20:43:18.293Z,26.01
2022-09-05T20:43:21.004Z,25.67
2022-09-05T20:47:39.929Z,25.59
2022-09-05T20:54:09.274Z,26.13
2022-09-05T20:54:17.371Z,25.54
2022-09-05T20:55:39.705Z,25.58
2022-09-05T20:58:31.122Z,25.82
2022-09-05T21:01:20.882Z,25.65
2022-09-05T21:03:59.040Z,25.86
2022-09-05T21:06:33.503Z,25.65
2022-09-05T21:09:30.544Z,25.38
2022-09-05T21:12:07.001Z,25.42
2022-09-05T21:14:38.390Z,25.07
2022-09-05T21:17:15.326Z,25.23
2022-09-05T21:19:53.577Z,25.16
2022-09-05T21:22:29.589Z,24.67
2022-09-05T21:25:42.215Z,24.54
2022-09-05T21:28:40.330Z,24.10
2022-09-05T21:31:13.700Z,24.04
2022-09-05T21:33:46.375Z,24.09
2022-09-05T21:36:17.491Z,23.89
2022-09-05T21:38:47.576Z,23.56
2022-09-05T21:41:18.701Z,23.58
2022-09-05T21:47:39.617Z,23.87
2022-09-05T21:47:41.844Z,24.01
2022-09-05T21:49:32.419Z,23.94
2022-09-05T21:52:09.239Z,23.81
2022-09-05T21:59:29.713Z,23.99
2022-09-05T21:59:32.838Z,23.70
2022-09-05T22:00:26.873Z,23.70
2022-09-05T22:02:56.332Z,24.10
2022-09-05T22:05:26.547Z,24.11
2022-09-05T22:07:56.770Z,24.09
2022-09-05T22:10:41.589Z,23.89
2022-09-05T22:13:16.633Z,23.93
2022-09-05T22:15:49.385Z,23.66
2022-09-05T22:18:18.495Z,23.85
2022-09-05T22:21:32.545Z,23.35
2022-09-05T22:23:46.945Z,23.12
2022-09-05T22:26:20.088Z,22.81
2022-09-05T22:28:52.191Z,23.25
2022-09-05T22:31:23.450Z,23.33
2022-09-05T22:33:53.036Z,23.43
2022-09-05T22:36:22.282Z,23.51
2022-09-05T22:38:51.705Z,23.02
2022-09-05T22:41:30.333Z,22.83
2022-09-05T22:44:00.331Z,23.03
2022-09-05T22:46:31.241Z,23.24
2022-09-05T22:49:00.449Z,23.06
2022-09-05T22:51:30.279Z,23.32
2022-09-05T22:53:59.654Z,23.71
2022-09-05T22:56:38.301Z,23.74
2022-09-05T22:59:08.304Z,23.71
2022-09-05T23:01:37.542Z,23.74
2022-09-05T23:04:06.580Z,23.91
2022-09-05T23:06:36.188Z,23.62
2022-09-05T23:09:05.427Z,23.07
2022-09-05T23:11:35.320Z,22.94
2022-09-05T23:14:04.536Z,22.99
2022-09-05T23:16:34.001Z,22.55
2022-09-05T23:19:03.380Z,22.55
2022-09-05T23:21:32.596Z,22.23
2022-09-05T23:24:01.802Z,22.18
2022-09-05T23:26:31.349Z,22.26
2022-09-05T23:29:00.842Z,22.37
2022-09-05T23:31:29.982Z,22.38
2022-09-05T23:33:59.516Z,22.45
2022-09-05T23:36:28.625Z,22.11
2022-09-05T23:38:57.805Z,22.18
2022-09-05T23:41:27.370Z,22.58
2022-09-05T23:43:56.596Z,22.04
2022-09-05T23:46:26.715Z,21.83
2022-09-05T23:48:56.115Z,21.96
2022-09-05T23:51:25.585Z,22.40
2022-09-05T23:53:54.826Z,22.64
2022-09-05T23:56:24.153Z,22.46
2022-09-05T23:58:53.508Z,22.40
